sensor_id;sensor_type;location;lat;lon;timestamp;P1;durP1;ratioP1;P2;durP2;ratioP2
27305;SDS011;14792;50.886;6.468;2022-09-23T00:01:53;13.62;;;2.45;;
27305;SDS011;14792;50.886;6.468;2022-09-23T00:04:54;15.23;;;2.72;;
27305;SDS011;14792;50.886;6.468;2022-09-23T00:07:56;6.87;;;2.37;;
27305;SDS011;14792;50.886;6.468;2022-09-23T00:11:03;17.00;;;2.80;;
27305;SDS011;14792;50.886;6.468;2022-09-23T00:14:05;5.60;;;2.60;;
27305;SDS011;14792;50.886;6.468;2022-09-23T00:17:06;5.17;;;2.15;;
27305;SDS011;14792;50.886;6.468;2022-09-23T00:20:08;8.63;;;2.98;;
27305;SDS011;14792;50.886;6.468;2022-09-23T00:23:09;8.23;;;2.58;;
27305;SDS011;14792;50.886;6.468;2022-09-23T00:26:12;9.38;;;2.58;;
27305;SDS011;14792;50.886;6.468;2022-09-23T00:29:13;10.65;;;2.35;;
27305;SDS011;14792;50.886;6.468;2022-09-23T00:32:14;10.88;;;3.00;;
27305;SDS011;14792;50.886;6.468;2022-09-23T00:35:16;10.93;;;2.60;;
27305;SDS011;14792;50.886;6.468;2022-09-23T00:38:17;8.38;;;2.40;;
27305;SDS011;14792;50.886;6.468;2022-09-23T00:41:19;14.07;;;2.70;;
27305;SDS011;14792;50.886;6.468;2022-09-23T00:44:40;9.53;;;2.65;;
27305;SDS011;14792;50.886;6.468;2022-09-23T00:47:46;11.22;;;3.20;;
27305;SDS011;14792;50.886;6.468;2022-09-23T00:50:48;9.25;;;2.55;;
27305;SDS011;14792;50.886;6.468;2022-09-23T00:53:49;12.60;;;2.70;;
27305;SDS011;14792;50.886;6.468;2022-09-23T00:56:51;22.58;;;3.00;;
27305;SDS011;14792;50.886;6.468;2022-09-23T00:59:52;12.13;;;2.83;;
27305;SDS011;14792;50.886;6.468;2022-09-23T01:02:54;9.43;;;3.17;;
27305;SDS011;14792;50.886;6.468;2022-09-23T01:05:56;18.67;;;3.20;;
27305;SDS011;14792;50.886;6.468;2022-09-23T01:08:57;6.83;;;2.62;;
27305;SDS011;14792;50.886;6.468;2022-09-23T01:12:03;6.58;;;2.80;;
27305;SDS011;14792;50.886;6.468;2022-09-23T01:18:23;8.48;;;2.42;;
27305;SDS011;14792;50.886;6.468;2022-09-23T01:30:52;12.95;;;2.92;;
27305;SDS011;14792;50.886;6.468;2022-09-23T01:33:52;8.50;;;2.90;;
27305;SDS011;14792;50.886;6.468;2022-09-23T01:37:08;10.40;;;3.22;;
27305;SDS011;14792;50.886;6.468;2022-09-23T01:46:43;17.65;;;3.10;;
27305;SDS011;14792;50.886;6.468;2022-09-23T01:49:34;12.03;;;2.77;;
27305;SDS011;14792;50.886;6.468;2022-09-23T01:52:43;12.45;;;3.17;;
27305;SDS011;14792;50.886;6.468;2022-09-23T01:55:47;8.78;;;3.27;;
27305;SDS011;14792;50.886;6.468;2022-09-23T02:02:04;12.05;;;2.92;;
27305;SDS011;14792;50.886;6.468;2022-09-23T02:05:11;11.45;;;3.08;;
27305;SDS011;14792;50.886;6.468;2022-09-23T02:08:16;13.53;;;3.55;;
27305;SDS011;14792;50.886;6.468;2022-09-23T02:11:15;7.33;;;3.00;;
27305;SDS011;14792;50.886;6.468;2022-09-23T02:14:23;9.28;;;2.80;;
27305;SDS011;14792;50.886;6.468;2022-09-23T02:17:27;19.55;;;3.08;;
27305;SDS011;14792;50.886;6.468;2022-09-23T02:20:29;11.00;;;3.02;;
27305;SDS011;14792;50.886;6.468;2022-09-23T02:23:34;8.40;;;3.20;;
27305;SDS011;14792;50.886;6.468;2022-09-23T02:26:39;9.18;;;3.30;;
27305;SDS011;14792;50.886;6.468;2022-09-23T02:29:42;10.95;;;3.08;;
27305;SDS011;14792;50.886;6.468;2022-09-23T02:32:51;9.70;;;3.00;;
27305;SDS011;14792;50.886;6.468;2022-09-23T02:36:00;6.85;;;2.72;;
27305;SDS011;14792;50.886;6.468;2022-09-23T02:39:04;8.30;;;2.95;;
27305;SDS011;14792;50.886;6.468;2022-09-23T02:42:11;9.18;;;3.15;;
27305;SDS011;14792;50.886;6.468;2022-09-23T02:45:15;11.22;;;3.08;;
27305;SDS011;14792;50.886;6.468;2022-09-23T02:48:24;7.47;;;2.90;;
27305;SDS011;14792;50.886;6.468;2022-09-23T02:51:26;8.58;;;3.37;;
27305;SDS011;14792;50.886;6.468;2022-09-23T02:54:28;14.90;;;3.25;;
27305;SDS011;14792;50.886;6.468;2022-09-23T02:57:30;5.15;;;2.72;;
27305;SDS011;14792;50.886;6.468;2022-09-23T03:00:38;11.85;;;3.15;;
27305;SDS011;14792;50.886;6.468;2022-09-23T03:03:55;8.43;;;3.00;;
27305;SDS011;14792;50.886;6.468;2022-09-23T03:10:28;7.35;;;3.27;;
27305;SDS011;14792;50.886;6.468;2022-09-23T03:13:37;7.25;;;3.15;;
27305;SDS011;14792;50.886;6.468;2022-09-23T03:16:46;11.88;;;3.30;;
27305;SDS011;14792;50.886;6.468;2022-09-23T03:19:49;11.83;;;3.25;;
27305;SDS011;14792;50.886;6.468;2022-09-23T03:22:57;4.12;;;3.08;;
27305;SDS011;14792;50.886;6.468;2022-09-23T03:25:58;8.75;;;3.25;;
27305;SDS011;14792;50.886;6.468;2022-09-23T03:29:03;7.17;;;2.70;;
27305;SDS011;14792;50.886;6.468;2022-09-23T03:32:04;12.40;;;3.20;;
27305;SDS011;14792;50.886;6.468;2022-09-23T03:35:05;16.02;;;3.58;;
27305;SDS011;14792;50.886;6.468;2022-09-23T03:38:13;11.53;;;3.33;;
27305;SDS011;14792;50.886;6.468;2022-09-23T03:41:12;9.90;;;3.25;;
27305;SDS011;14792;50.886;6.468;2022-09-23T03:44:13;7.40;;;3.20;;
27305;SDS011;14792;50.886;6.468;2022-09-23T03:47:15;7.42;;;3.40;;
27305;SDS011;14792;50.886;6.468;2022-09-23T03:50:16;9.65;;;3.00;;
27305;SDS011;14792;50.886;6.468;2022-09-23T03:53:18;9.35;;;3.00;;
27305;SDS011;14792;50.886;6.468;2022-09-23T03:56:19;9.45;;;3.10;;
27305;SDS011;14792;50.886;6.468;2022-09-23T03:59:21;6.67;;;3.22;;
27305;SDS011;14792;50.886;6.468;2022-09-23T04:02:23;10.32;;;3.10;;
27305;SDS011;14792;50.886;6.468;2022-09-23T04:05:24;5.95;;;3.20;;
27305;SDS011;14792;50.886;6.468;2022-09-23T04:08:26;11.33;;;3.55;;
27305;SDS011;14792;50.886;6.468;2022-09-23T04:11:27;8.58;;;3.60;;
27305;SDS011;14792;50.886;6.468;2022-09-23T04:14:29;7.42;;;2.95;;
27305;SDS011;14792;50.886;6.468;2022-09-23T04:17:30;9.30;;;3.52;;
27305;SDS011;14792;50.886;6.468;2022-09-23T04:20:32;8.23;;;3.08;;
27305;SDS011;14792;50.886;6.468;2022-09-23T04:23:34;6.92;;;3.20;;
27305;SDS011;14792;50.886;6.468;2022-09-23T04:26:36;15.65;;;3.62;;
27305;SDS011;14792;50.886;6.468;2022-09-23T04:29:37;12.00;;;3.47;;
27305;SDS011;14792;50.886;6.468;2022-09-23T04:32:39;8.60;;;3.15;;
27305;SDS011;14792;50.886;6.468;2022-09-23T04:35:41;10.05;;;3.60;;
27305;SDS011;14792;50.886;6.468;2022-09-23T04:38:45;13.08;;;3.42;;
27305;SDS011;14792;50.886;6.468;2022-09-23T04:41:46;8.38;;;3.22;;
27305;SDS011;14792;50.886;6.468;2022-09-23T04:44:48;8.45;;;3.40;;
27305;SDS011;14792;50.886;6.468;2022-09-23T04:47:49;8.35;;;3.10;;
27305;SDS011;14792;50.886;6.468;2022-09-23T04:50:51;7.92;;;3.90;;
27305;SDS011;14792;50.886;6.468;2022-09-23T04:53:53;9.23;;;3.90;;
27305;SDS011;14792;50.886;6.468;2022-09-23T04:56:54;10.32;;;3.90;;
27305;SDS011;14792;50.886;6.468;2022-09-23T04:59:56;9.58;;;3.85;;
27305;SDS011;14792;50.886;6.468;2022-09-23T05:02:57;10.93;;;3.80;;
27305;SDS011;14792;50.886;6.468;2022-09-23T05:05:59;8.33;;;3.70;;
27305;SDS011;14792;50.886;6.468;2022-09-23T05:09:01;6.37;;;4.08;;
27305;SDS011;14792;50.886;6.468;2022-09-23T05:12:02;8.80;;;3.72;;
27305;SDS011;14792;50.886;6.468;2022-09-23T05:15:04;8.95;;;3.58;;
27305;SDS011;14792;50.886;6.468;2022-09-23T05:18:05;9.90;;;4.00;;
27305;SDS011;14792;50.886;6.468;2022-09-23T05:21:12;5.80;;;3.52;;
27305;SDS011;14792;50.886;6.468;2022-09-23T05:24:09;7.75;;;3.87;;
27305;SDS011;14792;50.886;6.468;2022-09-23T05:27:10;6.40;;;3.87;;
27305;SDS011;14792;50.886;6.468;2022-09-23T05:30:12;13.93;;;4.12;;
27305;SDS011;14792;50.886;6.468;2022-09-23T05:33:13;9.40;;;3.60;;
27305;SDS011;14792;50.886;6.468;2022-09-23T05:36:15;6.90;;;3.83;;
27305;SDS011;14792;50.886;6.468;2022-09-23T05:39:19;6.22;;;3.60;;
27305;SDS011;14792;50.886;6.468;2022-09-23T05:42:21;12.75;;;4.00;;
27305;SDS011;14792;50.886;6.468;2022-09-23T05:45:22;10.08;;;3.83;;
27305;SDS011;14792;50.886;6.468;2022-09-23T05:48:24;8.18;;;3.83;;
27305;SDS011;14792;50.886;6.468;2022-09-23T05:51:26;8.23;;;3.52;;
27305;SDS011;14792;50.886;6.468;2022-09-23T05:54:27;10.65;;;3.75;;
27305;SDS011;14792;50.886;6.468;2022-09-23T05:57:29;11.10;;;3.67;;
27305;SDS011;14792;50.886;6.468;2022-09-23T06:00:30;5.47;;;3.47;;
27305;SDS011;14792;50.886;6.468;2022-09-23T06:03:37;7.33;;;3.98;;
27305;SDS011;14792;50.886;6.468;2022-09-23T06:06:39;7.55;;;3.65;;
27305;SDS011;14792;50.886;6.468;2022-09-23T06:09:40;14.47;;;3.65;;
27305;SDS011;14792;50.886;6.468;2022-09-23T06:12:42;13.03;;;3.95;;
27305;SDS011;14792;50.886;6.468;2022-09-23T06:15:43;8.63;;;3.90;;
27305;SDS011;14792;50.886;6.468;2022-09-23T06:18:45;7.33;;;3.55;;
27305;SDS011;14792;50.886;6.468;2022-09-23T06:21:47;8.03;;;3.58;;
27305;SDS011;14792;50.886;6.468;2022-09-23T06:24:48;11.88;;;3.87;;
27305;SDS011;14792;50.886;6.468;2022-09-23T06:27:51;9.13;;;3.42;;
27305;SDS011;14792;50.886;6.468;2022-09-23T06:30:55;11.15;;;3.90;;
27305;SDS011;14792;50.886;6.468;2022-09-23T06:33:54;6.42;;;3.20;;
27305;SDS011;14792;50.886;6.468;2022-09-23T06:36:55;9.85;;;3.50;;
27305;SDS011;14792;50.886;6.468;2022-09-23T06:39:57;13.08;;;3.58;;
27305;SDS011;14792;50.886;6.468;2022-09-23T06:42:59;15.13;;;3.90;;
27305;SDS011;14792;50.886;6.468;2022-09-23T06:46:01;8.00;;;3.87;;
27305;SDS011;14792;50.886;6.468;2022-09-23T06:49:02;12.13;;;3.33;;
27305;SDS011;14792;50.886;6.468;2022-09-23T06:52:03;9.25;;;3.72;;
27305;SDS011;14792;50.886;6.468;2022-09-23T06:55:05;8.30;;;3.80;;
27305;SDS011;14792;50.886;6.468;2022-09-23T06:58:07;9.05;;;3.15;;
27305;SDS011;14792;50.886;6.468;2022-09-23T07:01:09;8.53;;;3.02;;
27305;SDS011;14792;50.886;6.468;2022-09-23T07:04:10;11.08;;;3.47;;
27305;SDS011;14792;50.886;6.468;2022-09-23T07:07:11;8.53;;;3.12;;
27305;SDS011;14792;50.886;6.468;2022-09-23T07:10:13;16.25;;;4.12;;
27305;SDS011;14792;50.886;6.468;2022-09-23T07:13:15;12.45;;;3.58;;
27305;SDS011;14792;50.886;6.468;2022-09-23T07:16:16;16.80;;;3.27;;
27305;SDS011;14792;50.886;6.468;2022-09-23T07:19:18;14.28;;;3.72;;
27305;SDS011;14792;50.886;6.468;2022-09-23T07:22:20;8.55;;;2.95;;
27305;SDS011;14792;50.886;6.468;2022-09-23T07:25:21;9.95;;;3.30;;
27305;SDS011;14792;50.886;6.468;2022-09-23T07:28:22;13.88;;;3.70;;
27305;SDS011;14792;50.886;6.468;2022-09-23T07:31:24;10.60;;;3.33;;
27305;SDS011;14792;50.886;6.468;2022-09-23T07:34:26;9.35;;;3.15;;
27305;SDS011;14792;50.886;6.468;2022-09-23T07:37:27;9.68;;;3.30;;
27305;SDS011;14792;50.886;6.468;2022-09-23T07:40:29;11.48;;;3.12;;
27305;SDS011;14792;50.886;6.468;2022-09-23T07:43:31;9.20;;;2.80;;
27305;SDS011;14792;50.886;6.468;2022-09-23T07:46:33;12.30;;;3.30;;
27305;SDS011;14792;50.886;6.468;2022-09-23T07:49:34;8.93;;;3.17;;
27305;SDS011;14792;50.886;6.468;2022-09-23T07:52:36;9.93;;;3.02;;
27305;SDS011;14792;50.886;6.468;2022-09-23T07:55:37;14.38;;;3.27;;
27305;SDS011;14792;50.886;6.468;2022-09-23T07:58:38;10.05;;;2.92;;
27305;SDS011;14792;50.886;6.468;2022-09-23T08:01:41;11.57;;;3.98;;
27305;SDS011;14792;50.886;6.468;2022-09-23T08:04:42;12.75;;;2.83;;
27305;SDS011;14792;50.886;6.468;2022-09-23T08:07:43;8.85;;;2.95;;
27305;SDS011;14792;50.886;6.468;2022-09-23T08:10:45;10.72;;;2.98;;
27305;SDS011;14792;50.886;6.468;2022-09-23T08:13:46;8.05;;;2.90;;
27305;SDS011;14792;50.886;6.468;2022-09-23T08:16:48;6.60;;;2.60;;
27305;SDS011;14792;50.886;6.468;2022-09-23T08:19:49;12.95;;;3.62;;
27305;SDS011;14792;50.886;6.468;2022-09-23T08:22:51;6.25;;;2.87;;
27305;SDS011;14792;50.886;6.468;2022-09-23T08:25:56;7.75;;;3.30;;
27305;SDS011;14792;50.886;6.468;2022-09-23T08:28:57;7.50;;;3.00;;
27305;SDS011;14792;50.886;6.468;2022-09-23T08:31:59;14.68;;;2.90;;
27305;SDS011;14792;50.886;6.468;2022-09-23T08:35:00;7.92;;;2.80;;
27305;SDS011;14792;50.886;6.468;2022-09-23T08:38:02;8.60;;;3.33;;
27305;SDS011;14792;50.886;6.468;2022-09-23T08:41:11;9.53;;;3.00;;
27305;SDS011;14792;50.886;6.468;2022-09-23T08:58:40;15.28;;;2.92;;
27305;SDS011;14792;50.886;6.468;2022-09-23T09:05:38;13.03;;;2.83;;
27305;SDS011;14792;50.886;6.468;2022-09-23T09:40:38;10.93;;;2.60;;
27305;SDS011;14792;50.886;6.468;2022-09-23T09:50:56;5.95;;;2.08;;
27305;SDS011;14792;50.886;6.468;2022-09-23T09:54:19;8.33;;;2.20;;
27305;SDS011;14792;50.886;6.468;2022-09-23T09:57:24;10.68;;;2.58;;
27305;SDS011;14792;50.886;6.468;2022-09-23T10:03:32;11.60;;;2.50;;
27305;SDS011;14792;50.886;6.468;2022-09-23T10:06:32;8.18;;;2.30;;
27305;SDS011;14792;50.886;6.468;2022-09-23T10:09:36;6.10;;;2.20;;
27305;SDS011;14792;50.886;6.468;2022-09-23T10:12:43;14.20;;;2.40;;
27305;SDS011;14792;50.886;6.468;2022-09-23T10:15:45;9.85;;;2.37;;
27305;SDS011;14792;50.886;6.468;2022-09-23T10:18:47;13.55;;;2.75;;
27305;SDS011;14792;50.886;6.468;2022-09-23T10:21:55;10.18;;;2.02;;
27305;SDS011;14792;50.886;6.468;2022-09-23T10:24:52;10.98;;;2.62;;
27305;SDS011;14792;50.886;6.468;2022-09-23T10:27:54;8.48;;;2.65;;
27305;SDS011;14792;50.886;6.468;2022-09-23T10:31:03;7.42;;;2.20;;
27305;SDS011;14792;50.886;6.468;2022-09-23T10:34:22;7.97;;;2.08;;
27305;SDS011;14792;50.886;6.468;2022-09-23T10:37:30;8.25;;;1.60;;
27305;SDS011;14792;50.886;6.468;2022-09-23T10:40:49;4.80;;;1.70;;
27305;SDS011;14792;50.886;6.468;2022-09-23T10:44:20;7.50;;;2.25;;
27305;SDS011;14792;50.886;6.468;2022-09-23T10:47:27;6.87;;;2.33;;
27305;SDS011;14792;50.886;6.468;2022-09-23T10:53:38;6.95;;;1.90;;
27305;SDS011;14792;50.886;6.468;2022-09-23T10:56:39;4.33;;;1.32;;
27305;SDS011;14792;50.886;6.468;2022-09-23T10:59:44;5.90;;;1.90;;
27305;SDS011;14792;50.886;6.468;2022-09-23T11:12:34;6.42;;;1.80;;
27305;SDS011;14792;50.886;6.468;2022-09-23T11:15:39;5.78;;;2.00;;
27305;SDS011;14792;50.886;6.468;2022-09-23T11:18:47;4.47;;;1.62;;
27305;SDS011;14792;50.886;6.468;2022-09-23T11:35:21;5.55;;;1.75;;
27305;SDS011;14792;50.886;6.468;2022-09-23T11:38:26;3.90;;;1.70;;
27305;SDS011;14792;50.886;6.468;2022-09-23T11:41:27;9.78;;;1.70;;
27305;SDS011;14792;50.886;6.468;2022-09-23T11:44:30;7.60;;;1.95;;
27305;SDS011;14792;50.886;6.468;2022-09-23T11:47:36;5.55;;;2.12;;
27305;SDS011;14792;50.886;6.468;2022-09-23T11:50:37;6.97;;;2.08;;
27305;SDS011;14792;50.886;6.468;2022-09-23T11:53:42;6.92;;;1.60;;
27305;SDS011;14792;50.886;6.468;2022-09-23T11:56:46;3.95;;;1.92;;
27305;SDS011;14792;50.886;6.468;2022-09-23T11:59:51;5.62;;;1.47;;
27305;SDS011;14792;50.886;6.468;2022-09-23T12:05:59;5.95;;;1.25;;
27305;SDS011;14792;50.886;6.468;2022-09-23T12:09:01;8.50;;;1.75;;
27305;SDS011;14792;50.886;6.468;2022-09-23T12:22:32;6.37;;;1.65;;
27305;SDS011;14792;50.886;6.468;2022-09-23T12:25:51;5.97;;;1.70;;
27305;SDS011;14792;50.886;6.468;2022-09-23T12:28:53;6.60;;;1.42;;
27305;SDS011;14792;50.886;6.468;2022-09-23T12:31:54;7.72;;;1.52;;
27305;SDS011;14792;50.886;6.468;2022-09-23T12:34:55;4.85;;;1.22;;
27305;SDS011;14792;50.886;6.468;2022-09-23T12:37:58;7.25;;;1.25;;
27305;SDS011;14792;50.886;6.468;2022-09-23T12:40:58;6.08;;;1.80;;
27305;SDS011;14792;50.886;6.468;2022-09-23T12:53:52;4.08;;;1.20;;
27305;SDS011;14792;50.886;6.468;2022-09-23T12:56:56;3.80;;;1.40;;
27305;SDS011;14792;50.886;6.468;2022-09-23T12:59:58;5.33;;;1.45;;
27305;SDS011;14792;50.886;6.468;2022-09-23T13:02:58;2.47;;;1.30;;
27305;SDS011;14792;50.886;6.468;2022-09-23T13:06:18;2.60;;;1.30;;
27305;SDS011;14792;50.886;6.468;2022-09-23T13:09:41;2.02;;;1.20;;
27305;SDS011;14792;50.886;6.468;2022-09-23T13:12:42;4.15;;;1.22;;
27305;SDS011;14792;50.886;6.468;2022-09-23T13:15:43;4.42;;;1.12;;
27305;SDS011;14792;50.886;6.468;2022-09-23T13:18:49;6.35;;;1.57;;
27305;SDS011;14792;50.886;6.468;2022-09-23T13:25:00;6.05;;;1.57;;
27305;SDS011;14792;50.886;6.468;2022-09-23T13:28:02;3.70;;;1.30;;
27305;SDS011;14792;50.886;6.468;2022-09-23T13:31:12;7.08;;;1.70;;
27305;SDS011;14792;50.886;6.468;2022-09-23T13:34:05;3.90;;;1.20;;
27305;SDS011;14792;50.886;6.468;2022-09-23T13:37:16;6.30;;;1.40;;
27305;SDS011;14792;50.886;6.468;2022-09-23T13:40:18;4.15;;;1.80;;
27305;SDS011;14792;50.886;6.468;2022-09-23T13:46:43;6.08;;;1.95;;
27305;SDS011;14792;50.886;6.468;2022-09-23T13:49:43;6.35;;;1.70;;
27305;SDS011;14792;50.886;6.468;2022-09-23T13:52:45;3.20;;;1.57;;
27305;SDS011;14792;50.886;6.468;2022-09-23T13:55:46;6.67;;;1.70;;
27305;SDS011;14792;50.886;6.468;2022-09-23T13:58:48;4.85;;;2.08;;
27305;SDS011;14792;50.886;6.468;2022-09-23T14:01:49;2.85;;;1.70;;
27305;SDS011;14792;50.886;6.468;2022-09-23T14:04:51;8.08;;;1.82;;
27305;SDS011;14792;50.886;6.468;2022-09-23T14:07:53;8.80;;;2.20;;
27305;SDS011;14792;50.886;6.468;2022-09-23T14:10:57;3.58;;;1.85;;
27305;SDS011;14792;50.886;6.468;2022-09-23T14:13:56;4.55;;;1.75;;
27305;SDS011;14792;50.886;6.468;2022-09-23T14:16:57;7.03;;;2.10;;
27305;SDS011;14792;50.886;6.468;2022-09-23T14:19:59;7.83;;;1.95;;
27305;SDS011;14792;50.886;6.468;2022-09-23T14:23:04;5.22;;;1.90;;
27305;SDS011;14792;50.886;6.468;2022-09-23T14:26:05;5.40;;;1.30;;
27305;SDS011;14792;50.886;6.468;2022-09-23T14:29:14;2.40;;;1.47;;
27305;SDS011;14792;50.886;6.468;2022-09-23T14:32:15;7.15;;;1.67;;
27305;SDS011;14792;50.886;6.468;2022-09-23T14:35:19;3.02;;;1.50;;
27305;SDS011;14792;50.886;6.468;2022-09-23T14:38:21;4.70;;;1.57;;
27305;SDS011;14792;50.886;6.468;2022-09-23T14:41:41;6.10;;;1.87;;
27305;SDS011;14792;50.886;6.468;2022-09-23T14:44:42;4.33;;;1.85;;
27305;SDS011;14792;50.886;6.468;2022-09-23T14:47:47;4.25;;;2.02;;
27305;SDS011;14792;50.886;6.468;2022-09-23T14:50:46;9.43;;;1.90;;
27305;SDS011;14792;50.886;6.468;2022-09-23T14:53:49;4.85;;;1.70;;
27305;SDS011;14792;50.886;6.468;2022-09-23T14:56:50;6.15;;;1.60;;
27305;SDS011;14792;50.886;6.468;2022-09-23T15:02:57;5.90;;;1.72;;
27305;SDS011;14792;50.886;6.468;2022-09-23T15:06:02;6.85;;;1.90;;
27305;SDS011;14792;50.886;6.468;2022-09-23T15:09:03;7.10;;;1.92;;
27305;SDS011;14792;50.886;6.468;2022-09-23T15:12:05;5.53;;;1.90;;
27305;SDS011;14792;50.886;6.468;2022-09-23T15:15:09;3.75;;;1.60;;
27305;SDS011;14792;50.886;6.468;2022-09-23T15:18:15;5.65;;;1.92;;
27305;SDS011;14792;50.886;6.468;2022-09-23T15:21:18;7.40;;;2.50;;
27305;SDS011;14792;50.886;6.468;2022-09-23T15:27:36;7.22;;;1.55;;
27305;SDS011;14792;50.886;6.468;2022-09-23T15:30:37;5.87;;;1.60;;
27305;SDS011;14792;50.886;6.468;2022-09-23T15:33:39;5.65;;;1.60;;
27305;SDS011;14792;50.886;6.468;2022-09-23T15:36:41;5.12;;;1.75;;
27305;SDS011;14792;50.886;6.468;2022-09-23T15:39:42;4.55;;;1.70;;
27305;SDS011;14792;50.886;6.468;2022-09-23T15:42:47;7.78;;;1.92;;
27305;SDS011;14792;50.886;6.468;2022-09-23T15:45:49;8.15;;;1.70;;
27305;SDS011;14792;50.886;6.468;2022-09-23T15:49:05;8.95;;;1.90;;
27305;SDS011;14792;50.886;6.468;2022-09-23T15:52:03;9.78;;;2.17;;
27305;SDS011;14792;50.886;6.468;2022-09-23T15:55:12;10.00;;;2.05;;
27305;SDS011;14792;50.886;6.468;2022-09-23T15:58:09;5.78;;;1.60;;
27305;SDS011;14792;50.886;6.468;2022-09-23T16:01:11;10.08;;;1.95;;
27305;SDS011;14792;50.886;6.468;2022-09-23T16:04:12;5.35;;;1.90;;
27305;SDS011;14792;50.886;6.468;2022-09-23T16:07:13;7.03;;;2.00;;
27305;SDS011;14792;50.886;6.468;2022-09-23T16:10:15;4.65;;;1.82;;
27305;SDS011;14792;50.886;6.468;2022-09-23T16:13:17;12.70;;;2.10;;
27305;SDS011;14792;50.886;6.468;2022-09-23T16:16:18;6.28;;;1.80;;
27305;SDS011;14792;50.886;6.468;2022-09-23T16:19:23;8.28;;;2.00;;
27305;SDS011;14792;50.886;6.468;2022-09-23T16:22:24;11.88;;;2.45;;
27305;SDS011;14792;50.886;6.468;2022-09-23T16:25:27;8.88;;;2.22;;
27305;SDS011;14792;50.886;6.468;2022-09-23T16:28:28;10.13;;;2.50;;
27305;SDS011;14792;50.886;6.468;2022-09-23T16:31:29;13.28;;;3.00;;
27305;SDS011;14792;50.886;6.468;2022-09-23T16:34:31;12.30;;;3.37;;
27305;SDS011;14792;50.886;6.468;2022-09-23T16:37:33;10.23;;;2.60;;
27305;SDS011;14792;50.886;6.468;2022-09-23T16:40:34;7.95;;;2.20;;
27305;SDS011;14792;50.886;6.468;2022-09-23T16:43:36;9.45;;;2.27;;
27305;SDS011;14792;50.886;6.468;2022-09-23T16:46:37;6.90;;;2.77;;
27305;SDS011;14792;50.886;6.468;2022-09-23T16:49:40;8.43;;;2.20;;
27305;SDS011;14792;50.886;6.468;2022-09-23T16:52:41;8.15;;;1.77;;
27305;SDS011;14792;50.886;6.468;2022-09-23T16:55:42;9.58;;;2.35;;
27305;SDS011;14792;50.886;6.468;2022-09-23T16:58:44;7.00;;;2.25;;
27305;SDS011;14792;50.886;6.468;2022-09-23T17:01:45;8.23;;;2.60;;
27305;SDS011;14792;50.886;6.468;2022-09-23T17:05:05;6.75;;;2.87;;
27305;SDS011;14792;50.886;6.468;2022-09-23T17:08:07;5.37;;;2.58;;
27305;SDS011;14792;50.886;6.468;2022-09-23T17:11:08;6.62;;;2.77;;
27305;SDS011;14792;50.886;6.468;2022-09-23T17:14:13;15.80;;;7.67;;
27305;SDS011;14792;50.886;6.468;2022-09-23T17:17:17;9.55;;;5.10;;
27305;SDS011;14792;50.886;6.468;2022-09-23T17:20:18;7.97;;;5.60;;
27305;SDS011;14792;50.886;6.468;2022-09-23T17:23:20;11.83;;;5.28;;
27305;SDS011;14792;50.886;6.468;2022-09-23T17:26:22;10.10;;;4.60;;
27305;SDS011;14792;50.886;6.468;2022-09-23T17:29:23;8.35;;;5.28;;
27305;SDS011;14792;50.886;6.468;2022-09-23T17:32:25;13.45;;;5.60;;
27305;SDS011;14792;50.886;6.468;2022-09-23T17:35:26;10.38;;;6.03;;
27305;SDS011;14792;50.886;6.468;2022-09-23T17:38:28;9.85;;;3.35;;
27305;SDS011;14792;50.886;6.468;2022-09-23T17:41:30;11.03;;;3.40;;
27305;SDS011;14792;50.886;6.468;2022-09-23T17:44:31;9.78;;;3.17;;
27305;SDS011;14792;50.886;6.468;2022-09-23T17:47:33;6.80;;;2.72;;
27305;SDS011;14792;50.886;6.468;2022-09-23T17:50:35;8.58;;;2.75;;
27305;SDS011;14792;50.886;6.468;2022-09-23T17:53:37;9.40;;;2.65;;
27305;SDS011;14792;50.886;6.468;2022-09-23T17:56:38;9.63;;;3.92;;
27305;SDS011;14792;50.886;6.468;2022-09-23T17:59:39;14.50;;;4.70;;
27305;SDS011;14792;50.886;6.468;2022-09-23T18:02:41;21.82;;;11.50;;
27305;SDS011;14792;50.886;6.468;2022-09-23T18:05:42;15.83;;;8.80;;
27305;SDS011;14792;50.886;6.468;2022-09-23T18:08:44;11.88;;;5.87;;
27305;SDS011;14792;50.886;6.468;2022-09-23T18:11:46;10.65;;;5.37;;
27305;SDS011;14792;50.886;6.468;2022-09-23T18:14:47;10.20;;;6.30;;
27305;SDS011;14792;50.886;6.468;2022-09-23T18:17:49;14.78;;;7.05;;
27305;SDS011;14792;50.886;6.468;2022-09-23T18:20:50;15.10;;;6.50;;
27305;SDS011;14792;50.886;6.468;2022-09-23T18:23:52;12.23;;;5.62;;
27305;SDS011;14792;50.886;6.468;2022-09-23T18:26:54;13.58;;;5.45;;
27305;SDS011;14792;50.886;6.468;2022-09-23T18:29:55;10.18;;;3.35;;
27305;SDS011;14792;50.886;6.468;2022-09-23T18:32:57;12.05;;;4.03;;
27305;SDS011;14792;50.886;6.468;2022-09-23T18:35:59;13.85;;;4.60;;
27305;SDS011;14792;50.886;6.468;2022-09-23T18:39:00;11.80;;;4.20;;
27305;SDS011;14792;50.886;6.468;2022-09-23T18:42:02;15.38;;;4.67;;
27305;SDS011;14792;50.886;6.468;2022-09-23T18:45:03;11.45;;;4.25;;
27305;SDS011;14792;50.886;6.468;2022-09-23T18:48:05;13.00;;;4.55;;
27305;SDS011;14792;50.886;6.468;2022-09-23T18:51:24;12.23;;;5.67;;
27305;SDS011;14792;50.886;6.468;2022-09-23T18:54:26;16.45;;;6.42;;
27305;SDS011;14792;50.886;6.468;2022-09-23T18:57:27;16.37;;;5.97;;
27305;SDS011;14792;50.886;6.468;2022-09-23T19:00:29;12.10;;;6.70;;
27305;SDS011;14792;50.886;6.468;2022-09-23T19:03:31;10.28;;;5.55;;
27305;SDS011;14792;50.886;6.468;2022-09-23T19:06:32;11.05;;;5.08;;
27305;SDS011;14792;50.886;6.468;2022-09-23T19:09:34;13.35;;;4.72;;
27305;SDS011;14792;50.886;6.468;2022-09-23T19:12:35;12.88;;;5.40;;
27305;SDS011;14792;50.886;6.468;2022-09-23T19:15:37;12.53;;;5.08;;
27305;SDS011;14792;50.886;6.468;2022-09-23T19:18:40;13.58;;;5.08;;
27305;SDS011;14792;50.886;6.468;2022-09-23T19:21:40;14.05;;;4.80;;
27305;SDS011;14792;50.886;6.468;2022-09-23T19:24:42;10.23;;;4.45;;
27305;SDS011;14792;50.886;6.468;2022-09-23T19:27:43;14.25;;;5.60;;
27305;SDS011;14792;50.886;6.468;2022-09-23T19:30:45;9.40;;;4.87;;
27305;SDS011;14792;50.886;6.468;2022-09-23T19:33:56;12.93;;;4.78;;
27305;SDS011;14792;50.886;6.468;2022-09-23T19:36:54;10.95;;;4.72;;
27305;SDS011;14792;50.886;6.468;2022-09-23T19:39:56;9.48;;;4.95;;
27305;SDS011;14792;50.886;6.468;2022-09-23T19:42:57;11.40;;;6.08;;
27305;SDS011;14792;50.886;6.468;2022-09-23T19:45:59;10.53;;;6.08;;
27305;SDS011;14792;50.886;6.468;2022-09-23T19:49:00;13.68;;;6.17;;
27305;SDS011;14792;50.886;6.468;2022-09-23T19:52:02;16.97;;;7.05;;
27305;SDS011;14792;50.886;6.468;2022-09-23T19:55:04;17.85;;;6.62;;
27305;SDS011;14792;50.886;6.468;2022-09-23T19:58:05;10.43;;;5.70;;
27305;SDS011;14792;50.886;6.468;2022-09-23T20:01:07;16.23;;;6.85;;
27305;SDS011;14792;50.886;6.468;2022-09-23T20:04:08;16.95;;;7.58;;
27305;SDS011;14792;50.886;6.468;2022-09-23T20:07:10;17.77;;;7.55;;
27305;SDS011;14792;50.886;6.468;2022-09-23T20:10:12;9.63;;;6.78;;
27305;SDS011;14792;50.886;6.468;2022-09-23T20:13:13;11.15;;;7.47;;
27305;SDS011;14792;50.886;6.468;2022-09-23T20:16:15;10.75;;;7.40;;
27305;SDS011;14792;50.886;6.468;2022-09-23T20:19:16;11.80;;;7.75;;
27305;SDS011;14792;50.886;6.468;2022-09-23T20:22:18;12.63;;;7.30;;
27305;SDS011;14792;50.886;6.468;2022-09-23T20:25:25;9.90;;;6.90;;
27305;SDS011;14792;50.886;6.468;2022-09-23T20:28:27;12.10;;;6.85;;
27305;SDS011;14792;50.886;6.468;2022-09-23T20:31:29;14.50;;;7.40;;
27305;SDS011;14792;50.886;6.468;2022-09-23T20:34:30;11.38;;;6.65;;
27305;SDS011;14792;50.886;6.468;2022-09-23T20:37:32;11.20;;;6.17;;
27305;SDS011;14792;50.886;6.468;2022-09-23T20:40:34;14.30;;;6.67;;
27305;SDS011;14792;50.886;6.468;2022-09-23T20:43:35;9.58;;;6.00;;
27305;SDS011;14792;50.886;6.468;2022-09-23T20:46:37;13.98;;;6.67;;